Time;durP1;ratioP1;P1;durP2;ratioP2;P2;SDS_P1;SDS_P2;PMS_P1;PMS_P2;Temp;Humidity;BMP_temperature;BMP_pressure;BME280_temperature;BME280_humidity;BME280_pressure;Samples;Min_cycle;Max_cycle;Signal;HPM_P1;HPM_P2
2022/11/20 00:01:58;;;;;;;;;;;;;;;0.75;80.24;97497.34;5087814;28;20309;-59
2022/11/20 00:04:26;;;;;;;;;;;;;;;0.72;80.07;97503.19;5087143;28;19924;-58
2022/11/20 00:06:55;;;;;;;;;;;;;;;0.76;80.46;97498.94;5091234;28;19931;-59
2022/11/20 00:09:24;;;;;;;;;;;;;;;0.83;80.77;97498.72;5085820;28;20359;-58
2022/11/20 00:11:51;;;;;;;;;;;;;;;0.79;80.16;97491.19;5079313;28;19932;-58
2022/11/20 00:14:20;;;;;;;;;;;;;;;0.78;80.78;97488.78;5091018;28;19931;-65
2022/11/20 00:16:48;;;;;;;;;;;;;;;0.77;81.34;97493.34;5091739;28;19924;-59
2022/11/20 00:19:16;;;;;;;;;;;;;;;0.78;81.44;97494.94;5091986;28;20323;-60
2022/11/20 00:22:09;;;;;;;;;;;;;;;0.86;81.17;97491.00;5100476;28;20381;-58
2022/11/20 00:24:38;;;;;;;;;;;;;;;0.84;81.49;97486.94;5075354;28;19928;-59
2022/11/20 00:27:09;;;;;;;;;;;;;;;0.88;81.29;97493.41;5087597;28;20301;-60
2022/11/20 00:29:38;;;;;;;;;;;;;;;0.96;81.22;97493.72;5089910;28;19958;-61
2022/11/20 00:32:06;;;;;;;;;;;;;;;1.05;81.07;97489.47;5076115;28;20396;-59
2022/11/20 00:34:34;;;;;;;;;;;;;;;1.04;80.84;97481.72;5091191;28;19928;-59
2022/11/20 00:37:03;;;;;;;;;;;;;;;0.99;80.77;97485.16;5079312;28;20385;-59
2022/11/20 00:39:31;;;;;;;;;;;;;;;0.97;81.66;97492.66;5079677;28;19925;-61
2022/11/20 00:42:01;;;;;;;;;;;;;;;0.99;81.48;97501.22;5084337;28;20049;-58
2022/11/20 00:44:29;;;;;;;;;;;;;;;0.97;81.12;97494.53;5074150;28;19932;-60
2022/11/20 00:46:57;;;;;;;;;;;;;;;0.95;82.00;97494.78;5082054;28;19927;-58
2022/11/20 00:49:28;;;;;;;;;;;;;;;0.92;81.76;97492.63;5091184;28;19935;-59
2022/11/20 00:51:57;;;;;;;;;;;;;;;0.91;81.89;97499.06;5083795;28;19931;-60
2022/11/20 00:54:31;;;;;;;;;;;;;;;0.91;81.54;97499.06;5087662;28;19924;-58
2022/11/20 00:57:01;;;;;;;;;;;;;;;0.86;81.48;97499.00;5090977;28;19937;-59
2022/11/20 00:59:29;;;;;;;;;;;;;;;0.91;81.32;97487.53;5083832;28;20274;-59
2022/11/20 01:01:57;;;;;;;;;;;;;;;0.80;81.75;97473.31;5091600;28;19928;-60
2022/11/20 01:04:26;;;;;;;;;;;;;;;0.79;81.51;97474.34;5089594;28;19981;-60
2022/11/20 01:06:54;;;;;;;;;;;;;;;0.88;81.76;97493.41;5099731;28;19923;-58
2022/11/20 01:09:22;;;;;;;;;;;;;;;0.98;81.82;97483.56;5093015;28;20000;-59
2022/11/20 01:11:51;;;;;;;;;;;;;;;0.99;82.01;97490.53;5081822;28;19924;-59
2022/11/20 01:14:21;;;;;;;;;;;;;;;1.00;81.77;97486.78;5089817;28;20292;-59
2022/11/20 01:16:49;;;;;;;;;;;;;;;0.96;81.51;97496.41;5077748;28;19924;-58
2022/11/20 01:19:21;;;;;;;;;;;;;;;1.00;81.66;97497.47;5084827;28;19924;-61
2022/11/20 01:22:14;;;;;;;;;;;;;;;0.95;82.08;97500.13;5089354;28;19924;-59
2022/11/20 01:24:42;;;;;;;;;;;;;;;0.93;82.09;97496.91;5094218;28;20028;-58
2022/11/20 01:27:10;;;;;;;;;;;;;;;0.98;82.64;97502.28;5093497;28;19932;-58
2022/11/20 01:29:40;;;;;;;;;;;;;;;0.97;82.12;97510.56;5093548;28;19924;-59
2022/11/20 01:32:08;;;;;;;;;;;;;;;1.08;82.04;97498.06;5094077;28;19933;-63
2022/11/20 01:34:36;;;;;;;;;;;;;;;1.03;82.71;97501.50;5088029;28;19929;-58
2022/11/20 01:37:04;;;;;;;;;;;;;;;1.03;82.50;97496.97;5095317;28;19964;-59
2022/11/20 01:39:32;;;;;;;;;;;;;;;1.05;82.45;97489.47;5094974;28;19924;-58
2022/11/20 01:44:52;;;;;;;;;;;;;;;1.19;82.14;97486.34;5095550;28;19931;-58
2022/11/20 01:47:31;;;;;;;;;;;;;;;1.18;81.92;97482.88;5092554;28;20389;-58
2022/11/20 01:50:01;;;;;;;;;;;;;;;1.17;81.92;97480.44;5091956;28;20347;-59
2022/11/20 01:52:31;;;;;;;;;;;;;;;1.12;82.37;97480.41;5081581;28;20265;-58
2022/11/20 01:55:00;;;;;;;;;;;;;;;1.10;82.34;97486.03;5094180;28;20457;-58
2022/11/20 01:57:28;;;;;;;;;;;;;;;1.15;82.45;97485.25;5093760;28;19924;-59
2022/11/20 02:00:00;;;;;;;;;;;;;;;1.12;82.31;97485.75;5078799;28;20022;-58
2022/11/20 02:02:39;;;;;;;;;;;;;;;1.12;82.62;97483.91;5091546;28;19934;-58
2022/11/20 02:05:10;;;;;;;;;;;;;;;1.11;82.71;97481.47;5103195;28;19924;-59
2022/11/20 02:07:38;;;;;;;;;;;;;;;1.13;82.36;97476.69;5088835;28;19924;-58
2022/11/20 02:10:07;;;;;;;;;;;;;;;1.18;82.21;97474.03;5093564;28;19945;-59
2022/11/20 02:15:47;;;;;;;;;;;;;;;1.21;82.46;97468.16;5080498;28;20278;-58
2022/11/20 02:18:15;;;;;;;;;;;;;;;1.17;82.32;97469.72;5073525;28;20511;-58
2022/11/20 02:20:43;;;;;;;;;;;;;;;1.17;82.53;97475.06;5072015;28;19931;-59
2022/11/20 02:23:12;;;;;;;;;;;;;;;1.17;82.56;97483.09;5080394;28;19928;-61
2022/11/20 02:25:42;;;;;;;;;;;;;;;1.21;83.40;97478.84;5083664;28;20425;-60
2022/11/20 02:28:10;;;;;;;;;;;;;;;1.21;82.96;97473.50;5091216;28;19928;-59
2022/11/20 02:30:38;;;;;;;;;;;;;;;1.20;82.78;97479.91;5101711;28;19928;-58
2022/11/20 02:36:24;;;;;;;;;;;;;;;1.24;82.74;97471.09;5086264;28;20018;-62
2022/11/20 02:38:52;;;;;;;;;;;;;;;1.20;82.68;97477.25;5090043;28;19924;-59
2022/11/20 02:44:14;;;;;;;;;;;;;;;1.24;82.88;97472.97;5078401;28;19925;-58
2022/11/20 02:46:42;;;;;;;;;;;;;;;1.26;82.65;97466.28;5071197;28;19932;-59
2022/11/20 02:49:10;;;;;;;;;;;;;;;1.32;82.42;97453.72;5092675;28;19931;-59
2022/11/20 02:51:38;;;;;;;;;;;;;;;1.28;82.76;97450.78;5078684;28;19928;-59
2022/11/20 02:54:31;;;;;;;;;;;;;;;1.28;82.51;97471.41;5091384;28;20450;-58
2022/11/20 02:57:00;;;;;;;;;;;;;;;1.38;82.70;97471.41;5088217;28;19928;-59
2022/11/20 02:59:28;;;;;;;;;;;;;;;1.42;82.58;97471.69;5079362;28;20285;-59
2022/11/20 03:01:59;;;;;;;;;;;;;;;1.48;82.11;97460.75;5092606;28;20046;-59
2022/11/20 03:04:26;;;;;;;;;;;;;;;1.44;82.04;97467.72;5092967;28;19951;-58
2022/11/20 03:06:55;;;;;;;;;;;;;;;1.38;82.37;97460.69;5080495;28;19951;-58
2022/11/20 03:09:22;;;;;;;;;;;;;;;1.37;82.10;97453.75;5078383;28;19924;-59
2022/11/20 03:11:51;;;;;;;;;;;;;;;1.34;82.86;97456.16;5087879;28;19928;-59
2022/11/20 03:14:20;;;;;;;;;;;;;;;1.28;82.77;97450.78;5092437;28;20316;-59
2022/11/20 03:16:48;;;;;;;;;;;;;;;1.35;82.52;97449.75;5078917;28;19978;-59
2022/11/20 03:19:16;;;;;;;;;;;;;;;1.30;82.69;97459.34;5092539;28;20352;-59
2022/11/20 03:22:09;;;;;;;;;;;;;;;1.35;82.67;97461.25;5092196;28;20068;-58
2022/11/20 03:24:37;;;;;;;;;;;;;;;1.39;82.70;97462.34;5084419;28;20423;-58
2022/11/20 03:27:06;;;;;;;;;;;;;;;1.34;82.56;97465.00;5082421;28;19939;-59
2022/11/20 03:29:37;;;;;;;;;;;;;;;1.37;82.71;97458.28;5082992;28;20007;-58
2022/11/20 03:32:05;;;;;;;;;;;;;;;1.29;83.16;97455.06;5079917;28;20392;-59
2022/11/20 03:34:32;;;;;;;;;;;;;;;1.24;83.17;97444.34;5085997;28;19969;-58
2022/11/20 03:37:26;;;;;;;;;;;;;;;1.30;83.06;97451.31;5088686;28;19935;-59
2022/11/20 03:40:20;;;;;;;;;;;;;;;1.29;83.42;97451.59;5075073;28;20289;-58
2022/11/20 03:42:48;;;;;;;;;;;;;;;1.25;83.16;97445.94;5084549;28;19958;-58
2022/11/20 03:45:18;;;;;;;;;;;;;;;1.30;83.13;97445.16;5090163;28;19924;-58
2022/11/20 03:47:57;;;;;;;;;;;;;;;1.27;82.95;97449.16;5091375;28;20377;-59
2022/11/20 03:50:26;;;;;;;;;;;;;;;1.18;83.56;97442.72;5091929;28;20339;-58
2022/11/20 03:52:54;;;;;;;;;;;;;;;1.20;83.26;97442.47;5089181;28;19928;-58
2022/11/20 03:55:22;;;;;;;;;;;;;;;1.10;83.60;97437.88;5075527;28;19924;-59
2022/11/20 04:00:43;;;;;;;;;;;;;;;1.16;83.82;97439.50;5080249;28;19968;-58
2022/11/20 04:03:12;;;;;;;;;;;;;;;1.21;83.39;97433.34;5087090;28;20353;-58
2022/11/20 04:05:40;;;;;;;;;;;;;;;1.25;83.44;97434.44;5087627;28;19928;-58
2022/11/20 04:08:33;;;;;;;;;;;;;;;1.21;83.75;97436.03;5085858;28;19928;-58
2022/11/20 04:11:09;;;;;;;;;;;;;;;1.21;83.55;97438.72;5080749;28;19924;-59
2022/11/20 04:13:37;;;;;;;;;;;;;;;1.29;83.65;97441.69;5095188;28;19970;-59
2022/11/20 04:16:07;;;;;;;;;;;;;;;1.28;83.85;97436.59;5096497;28;19924;-60
2022/11/20 04:18:35;;;;;;;;;;;;;;;1.24;83.56;97439.00;5089972;28;19924;-59
2022/11/20 04:21:03;;;;;;;;;;;;;;;1.27;83.40;97443.00;5086490;28;19932;-58
2022/11/20 04:23:31;;;;;;;;;;;;;;;1.27;83.57;97438.47;5084563;28;19924;-60
2022/11/20 04:26:02;;;;;;;;;;;;;;;1.26;83.39;97434.19;5091327;28;19969;-58
2022/11/20 04:28:30;;;;;;;;;;;;;;;1.27;83.61;97435.78;5086612;28;20345;-58
2022/11/20 04:31:05;;;;;;;;;;;;;;;1.23;83.87;97437.41;5086097;28;19936;-59
2022/11/20 04:36:51;;;;;;;;;;;;;;;1.34;83.34;97430.19;5098483;28;20281;-59
2022/11/20 04:39:22;;;;;;;;;;;;;;;1.31;83.55;97428.03;5081246;28;19935;-58
2022/11/20 04:42:28;;;;;;;;;;;;;;;1.31;83.65;97434.19;5081228;28;19970;-59
2022/11/20 04:44:39;;;;;;;;;;;;;;;1.31;83.30;97431.53;5080926;28;19934;-59
2022/11/20 04:47:08;;;;;;;;;;;;;;;1.27;83.52;97421.59;5081490;28;19932;-59
2022/11/20 04:49:36;;;;;;;;;;;;;;;1.25;83.46;97426.41;5084761;28;20360;-58
2022/11/20 04:52:06;;;;;;;;;;;;;;;1.31;83.42;97422.69;5087352;28;20557;-60
2022/11/20 04:54:34;;;;;;;;;;;;;;;1.23;83.67;97421.34;5077319;28;19932;-59
2022/11/20 04:57:02;;;;;;;;;;;;;;;1.29;83.80;97425.63;5091835;28;19931;-59
2022/11/20 04:59:33;;;;;;;;;;;;;;;1.29;83.92;97424.84;5079613;28;19924;-61
2022/11/20 05:02:01;;;;;;;;;;;;;;;1.34;84.23;97429.41;5087590;28;19931;-60
2022/11/20 05:04:29;;;;;;;;;;;;;;;1.32;83.99;97429.66;5092592;28;19928;-58
2022/11/20 05:06:58;;;;;;;;;;;;;;;1.31;84.03;97428.03;5088688;28;19925;-58
2022/11/20 05:09:28;;;;;;;;;;;;;;;1.29;83.97;97416.81;5086916;28;19928;-59
2022/11/20 05:11:57;;;;;;;;;;;;;;;1.32;83.97;97424.28;5095150;28;19924;-59
2022/11/20 05:14:25;;;;;;;;;;;;;;;1.27;83.83;97426.94;5094799;28;19970;-58
2022/11/20 05:16:56;;;;;;;;;;;;;;;1.28;83.88;97429.38;5095046;28;19924;-59
2022/11/20 05:19:24;;;;;;;;;;;;;;;1.40;84.17;97431.81;5094021;28;20389;-59
2022/11/20 05:21:58;;;;;;;;;;;;;;;1.40;83.95;97431.81;5094130;28;19930;-58
2022/11/20 05:24:27;;;;;;;;;;;;;;;1.39;83.92;97424.88;5092965;28;19924;-59
2022/11/20 05:26:57;;;;;;;;;;;;;;;1.41;83.85;97421.91;5095114;28;19932;-58
2022/11/20 05:29:25;;;;;;;;;;;;;;;1.39;83.86;97430.22;5089797;28;19924;-59
2022/11/20 05:31:53;;;;;;;;;;;;;;;1.35;83.85;97423.78;5082101;28;19924;-58
2022/11/20 05:34:21;;;;;;;;;;;;;;;1.37;84.07;97416.28;5094115;28;19924;-58
2022/11/20 05:36:49;;;;;;;;;;;;;;;1.39;84.25;97419.50;5086043;28;19928;-58
2022/11/20 05:39:17;;;;;;;;;;;;;;;1.43;84.03;97415.22;5094477;28;19928;-61
2022/11/20 05:42:29;;;;;;;;;;;;;;;1.44;84.18;97406.16;5092593;28;19934;-59
2022/11/20 05:44:35;;;;;;;;;;;;;;;1.46;84.00;97404.00;5091522;28;20297;-59
2022/11/20 05:47:03;;;;;;;;;;;;;;;1.47;83.74;97410.94;5084389;28;19974;-59
2022/11/20 05:49:32;;;;;;;;;;;;;;;1.45;83.94;97402.38;5089231;28;19985;-59
2022/11/20 05:52:00;;;;;;;;;;;;;;;1.48;83.79;97398.38;5092307;28;20269;-58
2022/11/20 05:54:28;;;;;;;;;;;;;;;1.48;83.73;97388.47;5078126;28;19924;-59
2022/11/20 05:56:58;;;;;;;;;;;;;;;1.49;84.25;97402.66;5093205;28;20270;-59
2022/11/20 05:59:53;;;;;;;;;;;;;;;1.54;84.54;97406.13;5100390;28;19928;-59
2022/11/20 06:02:21;;;;;;;;;;;;;;;1.49;83.73;97405.31;5093462;28;19963;-58
2022/11/20 06:04:50;;;;;;;;;;;;;;;1.56;84.25;97404.00;5093749;28;19940;-59
2022/11/20 06:07:18;;;;;;;;;;;;;;;1.57;84.31;97404.81;5092007;28;20290;-59
2022/11/20 06:09:47;;;;;;;;;;;;;;;1.61;84.09;97410.44;5091506;28;19970;-58
2022/11/20 06:12:16;;;;;;;;;;;;;;;1.63;84.13;97405.63;5080425;28;19924;-58
2022/11/20 06:14:45;;;;;;;;;;;;;;;1.60;83.87;97393.59;5094042;28;19962;-59
2022/11/20 06:17:13;;;;;;;;;;;;;;;1.63;84.21;97400.28;5077833;28;19924;-59
2022/11/20 06:19:43;;;;;;;;;;;;;;;1.69;84.16;97396.53;5078564;28;19925;-59
2022/11/20 06:22:11;;;;;;;;;;;;;;;1.64;84.07;97401.88;5086962;28;19925;-58
2022/11/20 06:24:39;;;;;;;;;;;;;;;1.79;84.09;97399.22;5075574;28;20369;-58
2022/11/20 06:27:07;;;;;;;;;;;;;;;1.74;83.77;97400.00;5082813;28;19932;-59
2022/11/20 06:29:38;;;;;;;;;;;;;;;1.79;83.40;97402.69;5080829;28;19924;-59
2022/11/20 06:32:06;;;;;;;;;;;;;;;1.75;83.59;97400.81;5087805;28;19924;-61
2022/11/20 06:34:35;;;;;;;;;;;;;;;1.75;83.66;97400.81;5097265;28;19980;-61
2022/11/20 06:37:03;;;;;;;;;;;;;;;1.76;83.47;97407.78;5098580;28;19969;-59
2022/11/20 06:39:30;;;;;;;;;;;;;;;1.61;83.54;97405.09;5078033;28;19974;-59
2022/11/20 06:41:58;;;;;;;;;;;;;;;1.68;84.01;97411.00;5083211;28;19925;-59
2022/11/20 06:44:27;;;;;;;;;;;;;;;1.63;83.78;97408.31;5079539;28;20336;-58
2022/11/20 06:46:56;;;;;;;;;;;;;;;1.72;83.84;97394.13;5100281;28;20299;-59
2022/11/20 06:49:25;;;;;;;;;;;;;;;1.73;83.97;97411.78;5098900;28;19924;-59
2022/11/20 06:51:53;;;;;;;;;;;;;;;1.76;84.14;97413.97;5089666;28;19924;-59
2022/11/20 06:57:13;;;;;;;;;;;;;;;1.77;84.12;97422.78;5091874;28;20317;-59
2022/11/20 06:59:41;;;;;;;;;;;;;;;1.76;83.85;97422.00;5078507;28;19989;-59
2022/11/20 07:02:12;;;;;;;;;;;;;;;1.77;83.93;97423.59;5090946;28;19931;-59
2022/11/20 07:04:40;;;;;;;;;;;;;;;1.78;84.22;97419.84;5082910;28;19982;-58
2022/11/20 07:07:08;;;;;;;;;;;;;;;1.81;83.93;97430.03;5083972;28;20289;-59
2022/11/20 07:09:36;;;;;;;;;;;;;;;1.83;84.15;97435.13;5085379;28;19924;-59
2022/11/20 07:12:05;;;;;;;;;;;;;;;1.81;84.22;97430.03;5086413;28;19924;-61
2022/11/20 07:14:32;;;;;;;;;;;;;;;1.89;84.04;97439.41;5096291;28;19943;-63
2022/11/20 07:17:03;;;;;;;;;;;;;;;1.94;84.39;97434.03;5088337;28;19924;-60
2022/11/20 07:19:32;;;;;;;;;;;;;;;1.97;83.74;97436.22;5093942;28;19970;-59
2022/11/20 07:22:00;;;;;;;;;;;;;;;1.97;83.99;97430.84;5090526;28;19935;-59
2022/11/20 07:24:28;;;;;;;;;;;;;;;1.97;83.79;97427.34;5088534;28;19925;-59
2022/11/20 07:26:56;;;;;;;;;;;;;;;1.98;84.05;97426.28;5086585;28;19928;-59
2022/11/20 07:29:24;;;;;;;;;;;;;;;2.11;84.00;97425.75;5101299;28;19932;-62
2022/11/20 07:31:55;;;;;;;;;;;;;;;2.08;83.54;97426.28;5082984;28;19931;-59
2022/11/20 07:34:23;;;;;;;;;;;;;;;2.04;83.44;97433.25;5084074;28;19928;-59
2022/11/20 07:36:52;;;;;;;;;;;;;;;1.91;83.45;97437.25;5095198;28;19931;-60
2022/11/20 07:39:23;;;;;;;;;;;;;;;2.04;83.52;97438.63;5091773;28;19959;-63
2022/11/20 07:41:54;;;;;;;;;;;;;;;1.98;83.91;97435.13;5095150;28;19924;-63
2022/11/20 07:44:22;;;;;;;;;;;;;;;1.91;83.78;97429.22;5087528;28;19978;-63
2022/11/20 07:46:50;;;;;;;;;;;;;;;2.00;83.87;97432.97;5086627;28;20406;-62
2022/11/20 07:49:18;;;;;;;;;;;;;;;2.03;84.12;97434.34;5078255;28;19924;-63
2022/11/20 07:51:46;;;;;;;;;;;;;;;1.99;84.58;97433.25;5078309;28;19924;-63
2022/11/20 07:54:20;;;;;;;;;;;;;;;2.07;83.93;97436.19;5087868;28;19928;-63
2022/11/20 07:56:48;;;;;;;;;;;;;;;2.20;84.02;97428.69;5079807;28;19931;-62
2022/11/20 07:59:17;;;;;;;;;;;;;;;2.26;83.60;97449.06;5090921;28;20284;-62
2022/11/20 08:01:45;;;;;;;;;;;;;;;2.33;83.37;97441.53;5085975;28;20292;-62
2022/11/20 08:04:15;;;;;;;;;;;;;;;2.30;83.45;97434.84;5089856;28;20373;-62
2022/11/20 08:06:43;;;;;;;;;;;;;;;2.27;83.58;97443.41;5091033;28;20287;-62
2022/11/20 08:09:12;;;;;;;;;;;;;;;2.33;83.39;97439.66;5082232;28;19963;-62
2022/11/20 08:14:29;;;;;;;;;;;;;;;2.31;83.25;97439.13;5086621;28;19924;-62
2022/11/20 08:16:57;;;;;;;;;;;;;;;2.35;83.52;97436.72;5076654;28;20445;-62
2022/11/20 08:19:25;;;;;;;;;;;;;;;2.34;83.66;97443.13;5078363;28;19924;-63
2022/11/20 08:21:58;;;;;;;;;;;;;;;2.34;84.15;97432.41;5075091;28;19932;-62
2022/11/20 08:24:30;;;;;;;;;;;;;;;2.36;84.11;97441.00;5083442;28;19967;-62
2022/11/20 08:27:00;;;;;;;;;;;;;;;2.40;83.97;97435.91;5088542;28;19931;-64
2022/11/20 08:29:28;;;;;;;;;;;;;;;2.41;83.84;97437.53;5089195;28;19924;-62
2022/11/20 08:31:56;;;;;;;;;;;;;;;2.41;84.16;97443.69;5083171;28;19928;-62
2022/11/20 08:34:24;;;;;;;;;;;;;;;2.43;83.80;97438.84;5076102;28;19924;-62
2022/11/20 08:36:55;;;;;;;;;;;;;;;2.33;83.72;97438.84;5088566;28;19931;-62
2022/11/20 08:39:50;;;;;;;;;;;;;;;2.38;83.73;97436.19;5084584;28;20411;-62
2022/11/20 08:42:48;;;;;;;;;;;;;;;2.40;84.03;97435.91;5044177;28;19961;-62
2022/11/20 08:45:19;;;;;;;;;;;;;;;2.39;83.87;97436.97;5049820;28;20212;-62
2022/11/20 08:47:47;;;;;;;;;;;;;;;2.37;83.35;97439.94;5039923;28;20656;-63
2022/11/20 08:50:16;;;;;;;;;;;;;;;2.37;83.59;97439.94;5033647;28;19925;-62
2022/11/20 08:52:44;;;;;;;;;;;;;;;2.44;83.21;97436.97;5038396;28;19963;-62
2022/11/20 08:55:12;;;;;;;;;;;;;;;2.60;82.68;97433.19;5054147;28;19994;-62
2022/11/20 08:57:40;;;;;;;;;;;;;;;2.57;82.42;97428.38;5031171;28;20227;-63
2022/11/20 09:00:15;;;;;;;;;;;;;;;2.60;82.22;97433.19;5033078;28;20051;-62
2022/11/20 09:02:43;;;;;;;;;;;;;;;2.62;82.19;97437.22;5050057;28;20443;-64
2022/11/20 09:05:12;;;;;;;;;;;;;;;2.63;82.43;97438.81;5035862;28;20317;-62
2022/11/20 09:07:41;;;;;;;;;;;;;;;2.61;82.30;97438.31;5036363;28;19978;-62
2022/11/20 09:10:34;;;;;;;;;;;;;;;2.67;82.52;97428.38;5039575;28;20381;-62
2022/11/20 09:13:07;;;;;;;;;;;;;;;2.68;82.84;97419.25;5031175;28;19951;-63
2022/11/20 09:15:36;;;;;;;;;;;;;;;2.65;82.78;97427.00;5037334;28;19929;-62
2022/11/20 09:18:05;;;;;;;;;;;;;;;2.62;82.89;97428.38;5038122;28;19931;-63
2022/11/20 09:20:36;;;;;;;;;;;;;;;2.59;83.24;97434.28;5036451;28;19925;-63
2022/11/20 09:23:04;;;;;;;;;;;;;;;2.60;82.83;97419.78;5041187;28;19925;-63
2022/11/20 09:25:33;;;;;;;;;;;;;;;2.60;83.11;97417.91;5039643;28;19925;-63
2022/11/20 09:28:01;;;;;;;;;;;;;;;2.58;82.89;97408.53;5032529;28;20409;-62
2022/11/20 09:30:30;;;;;;;;;;;;;;;2.61;83.64;97408.81;5043121;28;19925;-63
2022/11/20 09:33:25;;;;;;;;;;;;;;;2.76;82.82;97404.44;5030246;28;19929;-63
2022/11/20 09:35:55;;;;;;;;;;;;;;;2.88;82.77;97413.03;5046497;28;20297;-62
2022/11/20 09:38:24;;;;;;;;;;;;;;;2.83;82.72;97407.66;5033545;28;19971;-62
2022/11/20 09:40:54;;;;;;;;;;;;;;;2.82;82.37;97414.91;5052326;28;20308;-63
2022/11/20 09:43:48;;;;;;;;;;;;;;;2.84;82.95;97417.31;5078604;28;19928;-62
2022/11/20 09:46:41;;;;;;;;;;;;;;;2.87;83.18;97408.72;5083626;28;19925;-62
2022/11/20 09:49:16;;;;;;;;;;;;;;;2.87;82.95;97406.03;5079780;28;19951;-64
2022/11/20 09:51:47;;;;;;;;;;;;;;;2.85;82.93;97414.34;5082268;28;19930;-62
2022/11/20 09:54:41;;;;;;;;;;;;;;;2.89;83.07;97411.94;5090853;28;19978;-63
2022/11/20 09:57:10;;;;;;;;;;;;;;;2.89;83.40;97414.63;5092163;28;20427;-62
2022/11/20 09:59:40;;;;;;;;;;;;;;;2.91;83.54;97409.78;5084918;28;19963;-63
2022/11/20 10:02:14;;;;;;;;;;;;;;;2.94;83.53;97411.91;5093271;28;19977;-62
2022/11/20 10:04:43;;;;;;;;;;;;;;;2.96;83.50;97409.75;5093347;28;19993;-62
2022/11/20 10:07:14;;;;;;;;;;;;;;;3.00;83.80;97415.38;5086761;28;19932;-62
2022/11/20 10:09:59;;;;;;;;;;;;;;;3.03;83.78;97421.00;5093823;28;20015;-62
2022/11/20 10:12:32;;;;;;;;;;;;;;;3.07;84.09;97405.94;5093291;28;19931;-62
2022/11/20 10:15:04;;;;;;;;;;;;;;;3.06;83.65;97411.59;5083014;28;20441;-64
2022/11/20 10:17:39;;;;;;;;;;;;;;;3.08;84.47;97394.13;5084105;28;20019;-63
2022/11/20 10:20:15;;;;;;;;;;;;;;;3.21;84.43;97394.63;5074572;28;19947;-62
2022/11/20 10:22:53;;;;;;;;;;;;;;;3.25;84.36;97398.34;5089230;28;19950;-63
2022/11/20 10:25:47;;;;;;;;;;;;;;;3.27;84.55;97398.91;5091823;28;20373;-62
2022/11/20 10:28:24;;;;;;;;;;;;;;;3.29;84.36;97389.47;5090377;28;19928;-63
2022/11/20 10:30:55;;;;;;;;;;;;;;;3.29;84.86;97392.16;5086378;28;19935;-63
2022/11/20 10:33:25;;;;;;;;;;;;;;;3.31;84.65;97392.69;5083770;28;19932;-63
2022/11/20 10:36:26;;;;;;;;;;;;;;;3.29;84.39;97384.09;5087531;28;19934;-65
2022/11/20 10:39:00;;;;;;;;;;;;;;;3.30;84.65;97387.59;5092691;28;19924;-63
2022/11/20 10:41:35;;;;;;;;;;;;;;;3.33;84.78;97387.03;5082536;28;19935;-62
2022/11/20 10:44:05;;;;;;;;;;;;;;;3.41;84.78;97378.41;5085753;28;20018;-63
2022/11/20 10:46:37;;;;;;;;;;;;;;;3.44;84.64;97377.84;5093189;28;19931;-62
2022/11/20 10:49:06;;;;;;;;;;;;;;;3.36;84.24;97371.19;5083879;28;19986;-62
2022/11/20 10:52:00;;;;;;;;;;;;;;;3.47;84.01;97369.25;5079602;28;20399;-62
2022/11/20 10:54:33;;;;;;;;;;;;;;;3.55;84.52;97379.38;5081857;28;20308;-63
2022/11/20 10:57:03;;;;;;;;;;;;;;;3.52;84.54;97369.22;5092061;28;19928;-62
2022/11/20 10:59:43;;;;;;;;;;;;;;;3.61;84.19;97372.09;5090569;28;20143;-63
2022/11/20 11:02:15;;;;;;;;;;;;;;;3.56;84.50;97370.25;5090834;28;19924;-62
2022/11/20 11:05:27;;;;;;;;;;;;;;;3.60;84.63;97360.56;5087334;28;20036;-62
2022/11/20 11:07:57;;;;;;;;;;;;;;;3.64;84.07;97361.59;5083538;28;20315;-63
2022/11/20 11:10:27;;;;;;;;;;;;;;;3.72;84.24;97360.19;5087541;28;19928;-64
2022/11/20 11:13:20;;;;;;;;;;;;;;;3.67;84.11;97355.69;5082844;28;19946;-63
2022/11/20 11:15:49;;;;;;;;;;;;;;;3.64;84.00;97350.84;5077203;28;19950;-63
2022/11/20 11:18:25;;;;;;;;;;;;;;;3.70;84.00;97356.19;5083560;28;19924;-62
2022/11/20 11:20:53;;;;;;;;;;;;;;;3.76;84.23;97360.44;5085034;28;20388;-62
2022/11/20 11:23:30;;;;;;;;;;;;;;;3.62;83.89;97363.78;5075285;28;20309;-62
2022/11/20 11:26:00;;;;;;;;;;;;;;;3.63;83.99;97392.25;5085095;28;20026;-62
2022/11/20 11:28:29;;;;;;;;;;;;;;;3.51;83.41;97415.13;5083262;28;20372;-62
2022/11/20 11:30:57;;;;;;;;;;;;;;;3.27;82.56;97428.41;5082811;28;19924;-63
2022/11/20 11:33:27;;;;;;;;;;;;;;;3.09;82.15;97411.88;5093689;28;20714;-62
2022/11/20 11:36:24;;;;;;;;;;;;;;;2.85;83.44;97392.09;5083594;28;19930;-63
2022/11/20 11:38:55;;;;;;;;;;;;;;;2.91;84.43;97399.03;5081750;28;19931;-63
2022/11/20 11:41:48;;;;;;;;;;;;;;;2.97;84.93;97395.25;5073167;28;19925;-62
2022/11/20 11:47:31;;;;;;;;;;;;;;;3.01;84.97;97380.22;5087792;28;19946;-63
2022/11/20 11:50:05;;;;;;;;;;;;;;;3.11;84.62;97384.75;5084628;28;19920;-62
2022/11/20 11:52:43;;;;;;;;;;;;;;;3.08;84.14;97387.97;5084983;28;19931;-63
2022/11/20 11:55:15;;;;;;;;;;;;;;;3.04;83.85;97386.94;5083497;28;20417;-64
2022/11/20 11:57:45;;;;;;;;;;;;;;;2.98;83.69;97370.03;5085317;28;20322;-62
2022/11/20 12:00:15;;;;;;;;;;;;;;;3.01;84.24;97369.47;5090027;28;19934;-62
2022/11/20 12:03:09;;;;;;;;;;;;;;;3.12;84.30;97365.66;5083101;28;19955;-63
2022/11/20 12:05:39;;;;;;;;;;;;;;;3.23;84.47;97373.66;5079931;28;19920;-62
2022/11/20 12:08:33;;;;;;;;;;;;;;;3.34;84.19;97377.91;5084683;28;19927;-63
2022/11/20 12:11:04;;;;;;;;;;;;;;;3.51;83.48;97388.28;5084447;28;20418;-63
2022/11/20 12:13:41;;;;;;;;;;;;;;;3.56;83.13;97383.66;5102325;28;19920;-63
2022/11/20 12:16:12;;;;;;;;;;;;;;;3.58;83.18;97386.09;5085638;28;19920;-62
2022/11/20 12:18:40;;;;;;;;;;;;;;;3.62;82.69;97389.81;5079160;28;19932;-63
2022/11/20 12:21:12;;;;;;;;;;;;;;;3.57;82.53;97390.66;5090125;28;19927;-62
2022/11/20 12:23:45;;;;;;;;;;;;;;;3.52;83.07;97385.31;5079282;28;21111;-62
2022/11/20 12:26:16;;;;;;;;;;;;;;;3.53;82.93;97394.19;5079348;28;20372;-62
2022/11/20 12:28:48;;;;;;;;;;;;;;;3.48;82.62;97392.31;5081760;28;20343;-62
2022/11/20 12:31:31;;;;;;;;;;;;;;;3.42;83.36;97385.38;5094564;28;20013;-62
2022/11/20 12:34:03;;;;;;;;;;;;;;;3.39;83.58;97385.94;5075339;28;19921;-65
2022/11/20 12:37:24;;;;;;;;;;;;;;;3.49;83.23;97379.69;5081481;28;20292;-63
2022/11/20 12:39:59;;;;;;;;;;;;;;;3.47;83.46;97376.50;5090988;28;19942;-62
2022/11/20 12:48:58;;;;;;;;;;;;;;;3.80;83.69;97367.66;5079902;28;19928;-62
2022/11/20 12:51:32;;;;;;;;;;;;;;;3.77;83.05;97364.72;5083379;28;19963;-62
2022/11/20 12:54:04;;;;;;;;;;;;;;;3.73;83.47;97363.69;5082480;28;19974;-62
2022/11/20 12:56:35;;;;;;;;;;;;;;;3.66;82.66;97358.63;5089445;28;19924;-62
2022/11/20 12:59:10;;;;;;;;;;;;;;;3.67;83.11;97358.38;5083847;28;19924;-62
2022/11/20 13:01:42;;;;;;;;;;;;;;;3.60;83.73;97360.56;5085886;28;19997;-62
2022/11/20 13:04:16;;;;;;;;;;;;;;;3.62;83.52;97354.88;5097208;28;20337;-62
2022/11/20 13:06:46;;;;;;;;;;;;;;;3.63;83.39;97351.16;5082210;28;20391;-62
2022/11/20 13:09:15;;;;;;;;;;;;;;;3.57;83.44;97355.75;5080811;28;19969;-62
2022/11/20 13:11:44;;;;;;;;;;;;;;;3.64;83.24;97350.06;5084360;28;19931;-62
2022/11/20 13:14:20;;;;;;;;;;;;;;;3.58;83.70;97357.34;5080943;28;19921;-64
2022/11/20 13:16:49;;;;;;;;;;;;;;;3.58;84.27;97351.19;5085251;28;19921;-62
2022/11/20 13:19:18;;;;;;;;;;;;;;;3.61;83.73;97345.22;5088059;28;19942;-62
2022/11/20 13:24:42;;;;;;;;;;;;;;;3.72;84.23;97348.66;5081695;28;19981;-62
2022/11/20 13:27:20;;;;;;;;;;;;;;;3.71;84.13;97355.91;5095197;28;20284;-63
2022/11/20 13:30:02;;;;;;;;;;;;;;;3.70;83.77;97353.50;5089214;28;19920;-62
2022/11/20 13:32:32;;;;;;;;;;;;;;;3.66;84.06;97355.94;5082645;28;19920;-63
2022/11/20 13:35:01;;;;;;;;;;;;;;;3.63;84.68;97357.31;5082193;28;20290;-62
2022/11/20 13:37:32;;;;;;;;;;;;;;;3.64;84.57;97358.13;5100513;28;19970;-62
2022/11/20 13:40:22;;;;;;;;;;;;;;;3.67;84.53;97358.38;5086420;28;19935;-62
2022/11/20 13:43:19;;;;;;;;;;;;;;;3.61;84.73;97354.09;5088756;28;20304;-62
2022/11/20 13:45:55;;;;;;;;;;;;;;;3.58;84.18;97351.97;5072708;28;20024;-62
2022/11/20 13:48:24;;;;;;;;;;;;;;;3.56;84.42;97346.06;5071426;28;20374;-62
2022/11/20 13:50:56;;;;;;;;;;;;;;;3.55;84.83;97340.97;5074170;28;20512;-62
2022/11/20 13:53:44;;;;;;;;;;;;;;;3.54;84.76;97353.63;5083674;28;19986;-63
2022/11/20 13:56:16;;;;;;;;;;;;;;;3.61;84.87;97367.53;5085044;28;19920;-62
2022/11/20 13:58:46;;;;;;;;;;;;;;;3.63;84.46;97362.69;5083006;28;20260;-63
2022/11/20 14:01:16;;;;;;;;;;;;;;;3.59;84.68;97363.53;5089535;28;20303;-62